Time;durP1;ratioP1;P1;durP2;ratioP2;P2;SDS_P1;SDS_P2;PMS_P1;PMS_P2;Temp;Humidity;BMP_temperature;BMP_pressure;BME280_temperature;BME280_humidity;BME280_pressure;Samples;Min_cycle;Max_cycle;Signal;HPM_P1;HPM_P2
2022/05/25 00:02:23;;;;;;;7.43;4.38;;;17.10;99.90;;;;;;5038084;28;20049;-73
2022/05/25 00:04:52;;;;;;;8.13;4.75;;;17.10;99.90;;;;;;5035945;28;20041;-72
2022/05/25 00:07:21;;;;;;;6.38;4.22;;;17.00;99.90;;;;;;5068992;28;20068;-73
2022/05/25 00:09:49;;;;;;;5.10;4.13;;;17.00;99.90;;;;;;5053438;28;20104;-72
2022/05/25 00:12:17;;;;;;;6.05;5.00;;;16.90;99.90;;;;;;5053930;28;20060;-72
2022/05/25 00:14:45;;;;;;;7.65;3.92;;;16.90;99.90;;;;;;5072566;28;20089;-72
2022/05/25 00:17:12;;;;;;;5.15;3.88;;;17.00;99.90;;;;;;5034372;28;20041;-72
2022/05/25 00:22:27;;;;;;;6.25;4.28;;;16.80;99.90;;;;;;5038922;28;20033;-72
2022/05/25 00:24:58;;;;;;;6.03;4.15;;;16.90;99.90;;;;;;5055960;28;20056;-72
2022/05/25 00:27:25;;;;;;;6.78;4.28;;;16.70;99.90;;;;;;5034158;28;20052;-72
2022/05/25 00:29:52;;;;;;;8.75;4.15;;;16.70;99.90;;;;;;5037327;28;20041;-72
2022/05/25 00:32:21;;;;;;;6.95;4.15;;;16.70;99.90;;;;;;5024153;28;20060;-72
2022/05/25 00:34:48;;;;;;;5.75;4.28;;;16.80;99.90;;;;;;5039370;28;21489;-72
2022/05/25 00:37:15;;;;;;;5.25;4.15;;;16.80;99.90;;;;;;5050838;28;20154;-72
2022/05/25 00:39:42;;;;;;;7.93;4.32;;;16.80;99.90;;;;;;5038284;28;20037;-72
2022/05/25 00:42:10;;;;;;;7.53;4.72;;;16.80;99.90;;;;;;5040305;28;20164;-72
2022/05/25 00:44:37;;;;;;;6.75;4.47;;;16.80;99.90;;;;;;5054393;28;20396;-72
2022/05/25 00:47:06;;;;;;;5.93;4.40;;;16.80;99.90;;;;;;5038946;28;20041;-72
2022/05/25 00:49:35;;;;;;;6.93;4.80;;;16.70;99.90;;;;;;5039251;28;20602;-72
2022/05/25 00:52:11;;;;;;;8.02;4.45;;;16.60;99.90;;;;;;5036423;28;20419;-72
2022/05/25 00:54:59;;;;;;;7.80;4.63;;;16.60;99.90;;;;;;5036807;28;20515;-72
2022/05/25 00:57:39;;;;;;;6.13;4.20;;;16.70;99.90;;;;;;5036852;28;20396;-72
2022/05/25 01:00:16;;;;;;;7.65;4.40;;;16.70;99.90;;;;;;5049468;28;20136;-72
2022/05/25 01:02:47;;;;;;;8.18;4.75;;;16.70;99.90;;;;;;5053421;28;20136;-72
2022/05/25 01:05:19;;;;;;;7.00;4.32;;;16.70;99.90;;;;;;5035652;28;20709;-72
2022/05/25 01:08:02;;;;;;;7.10;4.30;;;16.70;99.90;;;;;;5038254;28;20044;-72
2022/05/25 01:10:48;;;;;;;7.13;4.32;;;16.80;99.90;;;;;;5036197;28;20055;-72
2022/05/25 01:13:43;;;;;;;8.80;4.20;;;16.80;99.90;;;;;;5055515;28;20048;-72
2022/05/25 01:16:22;;;;;;;6.55;4.60;;;16.70;99.90;;;;;;5035121;28;20098;-72
2022/05/25 01:19:22;;;;;;;8.55;4.25;;;16.60;99.90;;;;;;5038741;28;20136;-73
2022/05/25 01:22:16;;;;;;;5.57;3.78;;;16.60;99.90;;;;;;5034558;28;20040;-72
2022/05/25 01:25:04;;;;;;;5.93;4.28;;;16.60;99.90;;;;;;5035904;28;20045;-72
2022/05/25 01:27:46;;;;;;;7.68;4.53;;;16.60;99.90;;;;;;5035550;28;20033;-72
2022/05/25 01:30:36;;;;;;;7.28;4.53;;;16.60;99.90;;;;;;5037669;28;20073;-72
2022/05/25 01:33:21;;;;;;;7.30;4.00;;;16.70;99.90;;;;;;5034108;28;20106;-73
2022/05/25 01:36:01;;;;;;;8.45;5.32;;;16.70;99.90;;;;;;5034773;28;20116;-73
2022/05/25 01:38:42;;;;;;;9.65;4.70;;;16.50;99.90;;;;;;5035418;28;20048;-73
2022/05/25 01:41:22;;;;;;;8.95;5.05;;;16.40;99.90;;;;;;5033122;28;20047;-73
2022/05/25 01:44:06;;;;;;;7.55;4.78;;;16.20;99.90;;;;;;5051093;28;20041;-73
2022/05/25 01:46:55;;;;;;;6.65;4.53;;;16.30;99.90;;;;;;5035643;28;20132;-72
2022/05/25 01:49:32;;;;;;;8.98;4.47;;;16.10;99.90;;;;;;5037791;28;20047;-72
2022/05/25 01:52:06;;;;;;;7.72;4.93;;;16.20;99.90;;;;;;5038240;28;20040;-73
2022/05/25 01:54:41;;;;;;;8.02;4.55;;;16.30;99.90;;;;;;5036002;28;20045;-73
2022/05/25 01:57:11;;;;;;;6.60;4.72;;;16.40;99.90;;;;;;5035763;28;20073;-73
2022/05/25 01:59:39;;;;;;;7.40;4.53;;;16.40;99.90;;;;;;5037310;28;22053;-73
2022/05/25 02:04:57;;;;;;;7.32;4.57;;;16.40;99.90;;;;;;5033841;28;20080;-73
2022/05/25 02:07:56;;;;;;;5.85;3.90;;;16.30;99.90;;;;;;5035304;28;20827;-73
2022/05/25 02:10:26;;;;;;;7.40;4.28;;;16.30;99.90;;;;;;5033861;28;20058;-73
2022/05/25 02:13:27;;;;;;;6.80;3.80;;;16.40;99.90;;;;;;5054212;28;20044;-73
2022/05/25 02:16:29;;;;;;;5.45;4.40;;;16.40;99.90;;;;;;5033248;28;20037;-73
2022/05/25 02:19:02;;;;;;;6.43;4.47;;;16.40;99.90;;;;;;5028450;28;20072;-73
2022/05/25 02:21:32;;;;;;;8.55;4.43;;;16.40;99.90;;;;;;5036433;28;20154;-73
2022/05/25 02:24:11;;;;;;;8.10;4.60;;;16.30;99.90;;;;;;5034882;28;20596;-73
2022/05/25 02:26:55;;;;;;;7.82;4.38;;;16.30;99.90;;;;;;5038225;28;20040;-73
2022/05/25 02:29:34;;;;;;;6.25;4.07;;;16.20;99.90;;;;;;5051892;28;20045;-73
2022/05/25 02:32:14;;;;;;;6.95;4.40;;;16.20;99.90;;;;;;5033205;28;20119;-73
2022/05/25 02:34:46;;;;;;;5.93;4.30;;;16.20;99.90;;;;;;5036392;28;20124;-73
2022/05/25 02:37:13;;;;;;;6.50;4.07;;;16.20;99.90;;;;;;5021730;28;20131;-73
2022/05/25 02:39:42;;;;;;;6.10;3.90;;;16.20;99.90;;;;;;5055352;28;20033;-73
2022/05/25 02:42:15;;;;;;;7.72;4.15;;;16.20;99.90;;;;;;5041190;28;20051;-73
2022/05/25 02:44:43;;;;;;;6.13;3.97;;;16.20;99.90;;;;;;5055912;28;20045;-73
2022/05/25 02:47:12;;;;;;;5.88;4.10;;;16.10;99.90;;;;;;5051271;28;20416;-73
2022/05/25 02:49:39;;;;;;;7.13;4.25;;;16.20;99.90;;;;;;5040685;28;20132;-73
2022/05/25 02:52:08;;;;;;;5.95;4.07;;;16.10;99.90;;;;;;5055731;28;20125;-73
2022/05/25 02:54:37;;;;;;;5.13;3.50;;;16.10;99.90;;;;;;5042317;28;20051;-74
2022/05/25 02:57:05;;;;;;;7.80;4.05;;;16.20;99.90;;;;;;5031503;28;20057;-74
2022/05/25 02:59:33;;;;;;;6.57;3.95;;;16.20;99.90;;;;;;5042158;28;20510;-74
2022/05/25 03:02:04;;;;;;;6.10;4.55;;;16.10;99.90;;;;;;5028233;28;20051;-74
2022/05/25 03:04:40;;;;;;;7.38;5.05;;;16.20;99.90;;;;;;5060370;28;20480;-74
2022/05/25 03:07:08;;;;;;;8.30;4.45;;;16.20;99.90;;;;;;5041756;28;20037;-74
2022/05/25 03:09:36;;;;;;;6.88;4.60;;;16.20;99.90;;;;;;5044311;28;20103;-74
2022/05/25 03:12:08;;;;;;;9.52;4.65;;;16.20;99.90;;;;;;5046362;28;20048;-74
2022/05/25 03:14:36;;;;;;;6.68;4.28;;;16.10;99.90;;;;;;5040869;28;20049;-75
2022/05/25 03:17:08;;;;;;;5.90;4.03;;;16.00;99.90;;;;;;5041588;28;20523;-74
2022/05/25 03:19:37;;;;;;;8.32;4.30;;;16.00;99.90;;;;;;5042981;28;20045;-74
2022/05/25 03:22:04;;;;;;;5.25;3.83;;;16.00;99.90;;;;;;5027545;28;20052;-74
2022/05/25 03:24:32;;;;;;;6.10;4.13;;;16.00;99.90;;;;;;5044091;28;20037;-74
2022/05/25 03:26:59;;;;;;;7.90;4.60;;;16.00;99.90;;;;;;5051579;28;20509;-75
2022/05/25 03:29:26;;;;;;;6.25;3.97;;;16.00;99.90;;;;;;5040957;28;20059;-74
2022/05/25 03:31:54;;;;;;;10.93;4.55;;;15.90;99.90;;;;;;5044565;28;20120;-74
2022/05/25 03:34:22;;;;;;;4.93;3.75;;;16.00;99.90;;;;;;5042140;28;20068;-75
2022/05/25 03:36:54;;;;;;;6.40;4.40;;;16.00;99.90;;;;;;5041433;28;20041;-74
2022/05/25 03:39:26;;;;;;;5.47;3.58;;;16.00;99.90;;;;;;5059064;28;20507;-74
2022/05/25 03:41:55;;;;;;;6.13;3.95;;;16.00;99.90;;;;;;5074102;28;20049;-74
2022/05/25 03:44:23;;;;;;;7.43;4.30;;;16.00;99.90;;;;;;5072263;28;20037;-74
2022/05/25 03:46:53;;;;;;;5.80;3.70;;;16.10;99.90;;;;;;5059309;28;20055;-75
2022/05/25 03:49:21;;;;;;;6.07;3.83;;;16.00;99.90;;;;;;5045222;28;20097;-75
2022/05/25 03:51:48;;;;;;;4.95;3.28;;;16.00;99.90;;;;;;5043287;28;20049;-74
2022/05/25 03:54:16;;;;;;;5.47;3.47;;;16.00;99.90;;;;;;5043672;28;20048;-74
2022/05/25 03:56:43;;;;;;;4.95;3.50;;;16.10;99.90;;;;;;5039338;28;20041;-75
2022/05/25 03:59:10;;;;;;;5.80;2.90;;;16.10;99.90;;;;;;5043813;28;20045;-75
2022/05/25 04:01:37;;;;;;;3.65;2.72;;;16.20;99.90;;;;;;5041797;28;20519;-74
2022/05/25 04:04:05;;;;;;;5.20;2.65;;;16.20;99.90;;;;;;5041518;28;20045;-74
2022/05/25 04:06:32;;;;;;;4.38;2.90;;;16.20;99.90;;;;;;5028146;28;20054;-74
2022/05/25 04:08:59;;;;;;;9.60;3.15;;;16.20;99.90;;;;;;5056812;28;20052;-74
2022/05/25 04:11:27;;;;;;;4.03;2.67;;;16.20;99.90;;;;;;5039631;28;20087;-74
2022/05/25 04:13:55;;;;;;;5.32;2.72;;;16.20;99.90;;;;;;5056270;28;20044;-74
2022/05/25 04:16:23;;;;;;;3.83;2.67;;;16.20;99.90;;;;;;5039222;28;20059;-75
2022/05/25 04:18:50;;;;;;;4.05;2.65;;;16.30;99.90;;;;;;5041002;28;20049;-74
2022/05/25 04:21:17;;;;;;;6.22;2.88;;;16.30;99.90;;;;;;5044147;28;20706;-74
2022/05/25 04:23:45;;;;;;;3.15;2.33;;;16.40;99.90;;;;;;5041971;28;20053;-74
2022/05/25 04:26:12;;;;;;;3.85;2.58;;;16.40;99.90;;;;;;5059080;28;20051;-74
2022/05/25 04:28:39;;;;;;;3.60;2.45;;;16.40;99.90;;;;;;5040244;28;20044;-74
2022/05/25 04:31:07;;;;;;;7.55;3.10;;;16.40;99.90;;;;;;5041939;28;20454;-75
2022/05/25 04:33:36;;;;;;;4.38;2.83;;;16.50;99.90;;;;;;5041510;28;20090;-74
2022/05/25 04:36:03;;;;;;;4.32;2.72;;;16.40;99.90;;;;;;5039797;28;20033;-74
2022/05/25 04:38:31;;;;;;;6.88;2.22;;;16.40;99.90;;;;;;5043266;28;20064;-74
2022/05/25 04:40:58;;;;;;;4.85;2.60;;;16.50;99.90;;;;;;5061965;28;20399;-74
2022/05/25 04:43:26;;;;;;;7.50;3.30;;;16.50;99.90;;;;;;5042195;28;20075;-74
2022/05/25 04:45:54;;;;;;;3.80;2.85;;;16.60;99.90;;;;;;5039677;28;20041;-74
2022/05/25 04:48:25;;;;;;;4.40;2.67;;;16.60;99.90;;;;;;5041490;28;20073;-74
2022/05/25 04:50:53;;;;;;;3.83;2.83;;;16.60;99.90;;;;;;5039086;28;20087;-74
2022/05/25 04:53:22;;;;;;;5.35;3.00;;;16.60;99.90;;;;;;5041931;28;20140;-74
2022/05/25 04:58:40;;;;;;;5.63;3.08;;;16.60;99.90;;;;;;5039530;28;20087;-74
2022/05/25 05:01:09;;;;;;;4.43;2.47;;;16.70;99.90;;;;;;5027881;28;20079;-74
2022/05/25 05:03:37;;;;;;;4.82;2.92;;;16.70;99.90;;;;;;5018279;28;20052;-74
2022/05/25 05:06:07;;;;;;;4.35;2.60;;;16.70;99.90;;;;;;5014583;28;20037;-73
2022/05/25 05:08:35;;;;;;;7.38;2.85;;;16.70;99.90;;;;;;5013308;28;20049;-74
2022/05/25 05:11:09;;;;;;;3.42;2.80;;;16.80;99.90;;;;;;5016580;28;20048;-74
2022/05/25 05:13:37;;;;;;;3.90;2.63;;;16.80;99.90;;;;;;5044256;28;21061;-74
2022/05/25 05:16:09;;;;;;;4.88;2.70;;;16.90;99.90;;;;;;5035038;28;20146;-74
2022/05/25 05:18:37;;;;;;;6.03;2.45;;;16.90;99.90;;;;;;5025859;28;20083;-74
2022/05/25 05:21:21;;;;;;;3.70;2.67;;;17.00;99.90;;;;;;5051096;28;20045;-74
2022/05/25 05:23:49;;;;;;;4.47;2.47;;;17.10;99.90;;;;;;5030823;28;20052;-74
2022/05/25 05:26:16;;;;;;;5.22;3.05;;;17.20;99.90;;;;;;5026929;28;20111;-74
2022/05/25 05:28:44;;;;;;;4.93;3.15;;;17.40;99.90;;;;;;5029601;28;20511;-74
2022/05/25 05:31:14;;;;;;;8.32;2.90;;;17.60;99.90;;;;;;5022340;28;20053;-74
2022/05/25 05:33:41;;;;;;;6.50;2.75;;;17.80;99.90;;;;;;5029878;28;20060;-74
2022/05/25 05:36:17;;;;;;;3.88;2.38;;;18.00;99.90;;;;;;5045411;28;20049;-74
2022/05/25 05:39:04;;;;;;;2.65;2.13;;;18.10;99.90;;;;;;5044911;28;23943;-73
2022/05/25 05:41:40;;;;;;;4.13;2.08;;;18.20;99.90;;;;;;5033663;28;20059;-74
2022/05/25 05:44:09;;;;;;;4.93;2.20;;;18.10;99.90;;;;;;5031380;28;20044;-74
2022/05/25 05:46:41;;;;;;;3.33;1.75;;;18.30;99.90;;;;;;5017458;28;20045;-74
2022/05/25 05:49:10;;;;;;;4.20;2.13;;;18.20;99.90;;;;;;5029358;28;20064;-74
2022/05/25 05:51:38;;;;;;;4.70;2.20;;;18.10;99.90;;;;;;5011816;28;20059;-74
2022/05/25 05:54:05;;;;;;;3.28;1.95;;;18.00;99.90;;;;;;5044009;28;20045;-74
2022/05/25 05:56:33;;;;;;;3.20;1.90;;;18.00;99.90;;;;;;5033057;28;20048;-74
2022/05/25 05:59:01;;;;;;;5.03;2.42;;;18.10;99.90;;;;;;5016328;28;20060;-74
2022/05/25 06:01:29;;;;;;;5.25;2.50;;;18.30;99.90;;;;;;5025831;28;20138;-74
2022/05/25 06:03:56;;;;;;;5.03;2.10;;;18.50;99.90;;;;;;5028156;28;20041;-73
2022/05/25 06:06:23;;;;;;;4.07;2.20;;;18.60;99.90;;;;;;5023827;28;20047;-73
2022/05/25 06:08:50;;;;;;;5.13;2.20;;;18.40;99.90;;;;;;5031625;28;20052;-72
2022/05/25 06:11:19;;;;;;;4.57;2.75;;;18.30;99.90;;;;;;5026938;28;22400;-73
2022/05/25 06:13:47;;;;;;;5.30;2.08;;;18.20;99.90;;;;;;5032968;28;21167;-73
2022/05/25 06:21:46;;;;;;;5.28;1.80;;;18.30;99.90;;;;;;5024394;28;20049;-72
2022/05/25 06:24:14;;;;;;;2.63;2.10;;;18.70;99.90;;;;;;5019764;28;20068;-72
2022/05/25 06:26:42;;;;;;;3.63;2.40;;;18.60;99.90;;;;;;5046084;28;20103;-73
2022/05/25 06:29:11;;;;;;;2.92;2.17;;;18.70;99.90;;;;;;5031332;28;20132;-73
2022/05/25 06:31:38;;;;;;;4.22;2.63;;;18.80;99.90;;;;;;5036651;28;20059;-72
2022/05/25 06:34:05;;;;;;;4.82;2.35;;;19.00;99.90;;;;;;5024547;28;20507;-73
2022/05/25 06:36:32;;;;;;;5.13;2.15;;;19.30;99.90;;;;;;5042057;28;20164;-73
2022/05/25 06:38:59;;;;;;;4.38;2.13;;;19.60;99.50;;;;;;5030087;28;21013;-73
2022/05/25 06:41:28;;;;;;;3.03;1.95;;;19.70;97.90;;;;;;5032827;28;20678;-73
2022/05/25 06:43:56;;;;;;;3.45;2.33;;;19.80;97.80;;;;;;5015305;28;20052;-72
2022/05/25 06:46:23;;;;;;;3.97;2.22;;;20.00;98.90;;;;;;5015637;28;20052;-73
2022/05/25 06:48:53;;;;;;;3.45;1.95;;;19.90;96.90;;;;;;5025682;28;20044;-72
2022/05/25 06:51:30;;;;;;;2.67;1.60;;;20.00;96.50;;;;;;5032065;28;20171;-73
2022/05/25 06:54:05;;;;;;;2.80;1.83;;;20.10;95.60;;;;;;5011405;28;20049;-72
2022/05/25 06:56:33;;;;;;;4.25;2.28;;;19.90;95.90;;;;;;5057727;28;20127;-73
2022/05/25 06:59:00;;;;;;;3.67;2.33;;;19.70;97.90;;;;;;5023879;28;20114;-73
2022/05/25 07:01:28;;;;;;;2.83;2.38;;;19.90;98.00;;;;;;5012299;28;20045;-72
2022/05/25 07:03:55;;;;;;;3.80;2.20;;;20.20;97.60;;;;;;5014336;28;20049;-73
2022/05/25 07:06:24;;;;;;;3.35;2.22;;;20.40;98.30;;;;;;5011592;28;20045;-72
2022/05/25 07:08:52;;;;;;;4.78;3.10;;;20.60;97.10;;;;;;5006260;28;20146;-72
2022/05/25 07:11:21;;;;;;;4.30;2.53;;;20.80;96.90;;;;;;5040863;28;20049;-72
2022/05/25 07:13:49;;;;;;;6.20;2.45;;;21.00;96.30;;;;;;5010134;28;20044;-72
2022/05/25 07:16:19;;;;;;;4.00;2.50;;;21.10;96.00;;;;;;5003939;28;20518;-72
2022/05/25 07:18:47;;;;;;;3.70;2.60;;;21.00;96.40;;;;;;5027432;28;20488;-72
2022/05/25 07:21:22;;;;;;;5.72;2.58;;;21.20;97.70;;;;;;5013906;28;20052;-73
2022/05/25 07:23:50;;;;;;;4.45;2.97;;;21.40;95.60;;;;;;5008668;28;20226;-74
2022/05/25 07:26:19;;;;;;;3.40;2.58;;;21.30;95.00;;;;;;5009585;28;20041;-75
2022/05/25 07:28:46;;;;;;;5.40;3.13;;;21.30;94.40;;;;;;5009553;28;20105;-72
2022/05/25 07:31:49;;;;;;;4.07;2.30;;;21.40;95.10;;;;;;4994651;28;20054;-72
2022/05/25 07:34:30;;;;;;;5.97;2.70;;;21.50;95.20;;;;;;5013465;28;20054;-72
2022/05/25 07:37:02;;;;;;;3.78;2.65;;;21.60;94.80;;;;;;5028102;28;20049;-72
2022/05/25 07:39:40;;;;;;;3.57;2.83;;;21.70;95.20;;;;;;5014994;28;20059;-72
2022/05/25 07:42:10;;;;;;;4.35;2.75;;;21.80;94.30;;;;;;5012835;28;20053;-73
2022/05/25 07:44:45;;;;;;;3.25;2.95;;;21.90;94.80;;;;;;5009066;28;20041;-73
2022/05/25 07:47:14;;;;;;;5.72;3.10;;;22.00;94.20;;;;;;5011830;28;20040;-73
2022/05/25 07:49:41;;;;;;;4.15;3.10;;;22.10;95.40;;;;;;5010656;28;20182;-73
2022/05/25 07:52:09;;;;;;;5.00;3.13;;;22.20;93.00;;;;;;5009073;28;20191;-73
2022/05/25 07:54:40;;;;;;;4.72;3.28;;;22.20;92.60;;;;;;5025846;28;20685;-72
2022/05/25 07:57:07;;;;;;;5.57;3.13;;;22.20;93.20;;;;;;4992706;28;20049;-73
2022/05/25 07:59:35;;;;;;;4.65;3.60;;;22.30;93.50;;;;;;5011264;28;20851;-73
2022/05/25 08:07:44;;;;;;;6.22;3.88;;;22.60;94.30;;;;;;5028016;28;20191;-73
2022/05/25 08:10:16;;;;;;;5.32;4.32;;;22.60;92.20;;;;;;4975350;28;1189794;-73
2022/05/25 08:12:45;;;;;;;7.83;3.70;;;22.60;92.30;;;;;;5013143;28;20045;-73
2022/05/25 08:15:14;;;;;;;5.82;4.35;;;22.60;92.40;;;;;;5012400;28;20440;-72
2022/05/25 08:17:41;;;;;;;4.18;3.53;;;22.70;94.70;;;;;;5015564;28;20048;-73
2022/05/25 08:20:10;;;;;;;6.28;4.05;;;22.70;93.90;;;;;;5015334;28;20118;-73
2022/05/25 08:22:38;;;;;;;6.72;4.32;;;22.80;92.40;;;;;;5010135;28;22688;-73
2022/05/25 08:25:07;;;;;;;6.65;4.10;;;22.80;93.60;;;;;;5026413;28;20192;-73
2022/05/25 08:27:38;;;;;;;5.72;4.05;;;22.90;93.00;;;;;;5003383;28;20049;-73
2022/05/25 08:30:12;;;;;;;7.10;4.75;;;22.90;93.30;;;;;;5024796;28;22352;-73
2022/05/25 08:32:40;;;;;;;6.97;3.63;;;22.90;92.70;;;;;;5015050;28;20056;-73
2022/05/25 08:35:08;;;;;;;6.80;4.35;;;22.90;91.40;;;;;;5025484;28;20056;-73
2022/05/25 08:37:36;;;;;;;6.90;4.00;;;23.00;94.00;;;;;;5007061;28;20052;-73
2022/05/25 08:40:04;;;;;;;5.63;4.35;;;23.00;92.50;;;;;;5023642;28;20053;-73
2022/05/25 08:42:36;;;;;;;4.47;3.88;;;23.00;93.20;;;;;;5042422;28;20057;-74
2022/05/25 08:45:04;;;;;;;;;;;23.30;92.10;;;;;;5011607;28;20063;-74
2022/05/25 08:47:48;;;;;;;7.60;4.05;;;23.40;92.40;;;;;;5010846;28;19929;-74
2022/05/25 08:50:15;;;;;;;5.40;3.80;;;23.40;92.00;;;;;;5038493;28;21317;-74
2022/05/25 08:52:45;;;;;;;5.18;3.90;;;23.30;92.60;;;;;;5009422;28;20060;-74
2022/05/25 08:55:22;;;;;;;4.82;4.05;;;23.40;93.20;;;;;;4987677;28;20052;-73
2022/05/25 08:57:55;;;;;;;7.03;4.10;;;23.40;92.80;;;;;;5006251;28;20052;-73
2022/05/25 09:00:23;;;;;;;7.25;4.07;;;23.20;92.90;;;;;;5003122;28;20056;-73
2022/05/25 09:03:27;;;;;;;9.25;4.18;;;23.20;91.40;;;;;;5012982;28;20110;-74
2022/05/25 09:06:09;;;;;;;6.13;4.53;;;23.30;93.10;;;;;;5036030;28;20276;-74
2022/05/25 09:08:55;;;;;;;7.15;4.82;;;23.40;93.90;;;;;;4985693;28;20059;-74
2022/05/25 09:11:40;;;;;;;6.72;3.60;;;23.60;93.60;;;;;;5012166;28;20122;-74
2022/05/25 09:14:37;;;;;;;5.68;4.10;;;23.80;92.60;;;;;;5009508;28;20049;-74
2022/05/25 09:17:20;;;;;;;6.10;4.18;;;23.70;91.20;;;;;;5006735;28;20041;-74
2022/05/25 09:19:49;;;;;;;5.32;4.30;;;23.70;90.80;;;;;;5004343;28;20052;-74
2022/05/25 09:22:27;;;;;;;5.30;4.03;;;23.80;91.00;;;;;;5020494;28;20044;-73
2022/05/25 09:24:57;;;;;;;6.25;3.92;;;23.80;92.50;;;;;;5006482;28;20053;-73
2022/05/25 09:27:31;;;;;;;5.80;4.20;;;23.90;91.20;;;;;;5007454;28;20427;-73
2022/05/25 09:30:02;;;;;;;8.32;4.20;;;23.90;90.80;;;;;;5027650;28;20045;-74
2022/05/25 09:32:42;;;;;;;8.35;4.85;;;23.80;90.90;;;;;;5010285;28;20041;-73
2022/05/25 09:35:15;;;;;;;6.57;4.18;;;23.80;90.80;;;;;;4982340;28;20053;-74
2022/05/25 09:38:13;;;;;;;6.70;4.63;;;23.80;91.50;;;;;;5003032;28;20091;-74
2022/05/25 09:40:45;;;;;;;7.38;4.30;;;23.90;92.20;;;;;;5001771;28;20068;-74
2022/05/25 09:43:19;;;;;;;8.35;4.22;;;24.00;91.10;;;;;;5038947;28;22369;-74
2022/05/25 09:45:50;;;;;;;5.97;4.38;;;24.10;92.10;;;;;;4993630;28;20769;-73
2022/05/25 09:48:27;;;;;;;6.13;4.88;;;23.90;90.60;;;;;;5007911;28;20077;-74
2022/05/25 09:51:18;;;;;;;6.63;4.35;;;24.10;92.10;;;;;;4988799;28;20140;-74
2022/05/25 09:54:01;;;;;;;5.97;4.47;;;24.30;92.60;;;;;;5006244;28;20044;-74
2022/05/25 09:56:35;;;;;;;9.38;5.00;;;24.30;91.70;;;;;;5004712;28;20134;-74
2022/05/25 09:59:14;;;;;;;7.25;4.22;;;24.40;91.70;;;;;;5009830;28;20085;-73
2022/05/25 10:01:46;;;;;;;9.85;4.70;;;24.30;89.90;;;;;;5005281;28;20082;-74
2022/05/25 10:04:16;;;;;;;;;;;24.30;90.10;;;;;;5005878;28;20129;-74
2022/05/25 10:06:52;;;;;;;6.18;4.00;;;24.20;88.50;;;;;;5024469;28;20905;-75
2022/05/25 10:09:22;;;;;;;7.07;4.10;;;24.40;91.00;;;;;;5005343;28;20138;-74
2022/05/25 10:11:57;;;;;;;7.22;5.22;;;24.70;91.40;;;;;;5006228;28;20049;-74
2022/05/25 10:14:26;;;;;;;9.05;5.70;;;24.70;89.80;;;;;;5005842;28;20183;-74
2022/05/25 10:17:10;;;;;;;8.38;4.90;;;24.70;90.80;;;;;;5002638;28;20060;-74
2022/05/25 10:19:50;;;;;;;8.15;5.40;;;24.80;90.10;;;;;;5007179;28;20059;-74
2022/05/25 10:22:45;;;;;;;8.07;4.57;;;24.50;90.10;;;;;;4995141;28;21022;-74
2022/05/25 10:25:20;;;;;;;9.32;5.85;;;24.30;90.90;;;;;;5014000;28;20114;-73
2022/05/25 10:27:48;;;;;;;10.77;5.68;;;24.40;90.20;;;;;;5006067;28;20043;-74
2022/05/25 10:36:52;;;;;;;8.10;5.57;;;24.60;91.30;;;;;;5022943;28;20056;-74
2022/05/25 10:39:28;;;;;;;8.60;5.93;;;24.50;90.00;;;;;;5002702;28;20071;-73
2022/05/25 10:42:04;;;;;;;7.97;5.65;;;24.50;91.20;;;;;;5005371;28;22560;-73
2022/05/25 10:45:05;;;;;;;8.30;5.40;;;24.60;92.10;;;;;;5000456;28;23724;-73
2022/05/25 10:47:54;;;;;;;7.60;5.72;;;24.70;92.00;;;;;;5003635;28;20072;-73
2022/05/25 10:50:49;;;;;;;7.38;4.93;;;24.70;90.50;;;;;;5009446;28;20056;-73
2022/05/25 10:56:57;;;;;;;5.47;4.63;;;25.00;90.30;;;;;;5001826;28;20049;-73
2022/05/25 10:59:46;;;;;;;5.97;4.60;;;24.90;82.90;;;;;;5008959;28;22932;-73
2022/05/25 11:02:24;;;;;;;7.55;4.72;;;25.10;87.20;;;;;;5008053;28;20049;-73
2022/05/25 11:05:27;;;;;;;6.25;4.90;;;25.20;86.10;;;;;;5013831;28;21258;-74
2022/05/25 11:08:11;;;;;;;8.93;4.95;;;25.30;84.70;;;;;;4945302;28;20058;-73
2022/05/25 11:10:57;;;;;;;6.63;5.15;;;25.40;85.00;;;;;;5005642;28;20724;-73
2022/05/25 11:13:41;;;;;;;6.13;5.03;;;25.60;85.90;;;;;;5012895;28;20074;-73
2022/05/25 11:16:55;;;;;;;6.28;4.95;;;25.70;85.20;;;;;;5009326;28;20048;-73
2022/05/25 11:19:59;;;;;;;7.03;5.47;;;25.40;86.00;;;;;;5003569;28;20061;-73
2022/05/25 11:22:48;;;;;;;6.65;5.15;;;25.10;86.70;;;;;;5008352;28;20124;-73
2022/05/25 11:25:43;;;;;;;6.78;5.07;;;25.00;86.20;;;;;;5006101;28;20154;-73
2022/05/25 11:28:28;;;;;;;6.63;5.60;;;25.10;83.90;;;;;;5022620;28;20053;-73
2022/05/25 11:31:15;;;;;;;8.40;5.45;;;25.40;84.60;;;;;;5008544;28;22426;-74
2022/05/25 11:34:30;;;;;;;9.02;5.80;;;25.50;85.50;;;;;;5007627;28;20080;-73
2022/05/25 11:37:25;;;;;;;8.50;6.57;;;25.20;84.90;;;;;;4968913;28;20060;-73
2022/05/25 11:40:12;;;;;;;9.23;6.65;;;25.00;84.60;;;;;;5008315;28;20064;-73
2022/05/25 11:43:03;;;;;;;9.15;6.43;;;25.20;83.30;;;;;;5007570;28;20041;-73
2022/05/25 11:45:42;;;;;;;9.70;6.47;;;25.60;86.60;;;;;;5000229;28;20761;-73
2022/05/25 11:48:39;;;;;;;12.27;6.18;;;25.40;82.20;;;;;;5001473;28;20048;-73
2022/05/25 11:51:21;;;;;;;8.32;5.85;;;25.00;85.00;;;;;;5020427;28;22408;-75
2022/05/25 11:53:56;;;;;;;;;;;25.10;85.50;;;;;;5004471;28;20727;-73
2022/05/25 11:56:49;;;;;;;8.25;5.72;;;25.40;88.10;;;;;;5006800;28;19929;-73
2022/05/25 11:59:38;;;;;;;9.13;5.30;;;25.20;83.30;;;;;;4957652;28;20064;-73
2022/05/25 12:02:38;;;;;;;8.82;5.60;;;25.10;82.00;;;;;;5008511;28;20099;-73
2022/05/25 12:05:27;;;;;;;9.02;5.78;;;25.10;79.40;;;;;;5002657;28;20048;-73
2022/05/25 12:08:10;;;;;;;6.95;5.40;;;24.80;82.00;;;;;;5005964;28;20049;-74
2022/05/25 12:10:40;;;;;;;7.43;4.85;;;24.90;81.60;;;;;;5013217;28;20067;-73
2022/05/25 12:13:40;;;;;;;8.10;5.18;;;25.00;80.70;;;;;;5008274;28;20084;-74
2022/05/25 12:16:24;;;;;;;8.05;5.53;;;25.20;80.70;;;;;;5007857;28;20064;-74
2022/05/25 12:19:12;;;;;;;5.40;4.55;;;25.30;80.60;;;;;;5003789;28;22467;-73
2022/05/25 12:21:53;;;;;;;7.85;5.45;;;25.50;79.30;;;;;;5011422;28;20057;-74
2022/05/25 12:24:25;;;;;;;7.43;4.80;;;25.70;80.10;;;;;;5008089;28;20868;-74
2022/05/25 12:26:54;;;;;;;8.77;4.80;;;25.80;81.80;;;;;;5024342;28;20049;-74
2022/05/25 12:29:27;;;;;;;7.55;5.00;;;25.90;79.50;;;;;;5001995;28;20639;-73
2022/05/25 12:31:56;;;;;;;6.43;4.63;;;25.90;76.90;;;;;;5016695;28;20057;-74
2022/05/25 12:34:35;;;;;;;6.80;4.68;;;25.70;76.90;;;;;;5034262;28;20049;-74
2022/05/25 12:37:04;;;;;;;6.82;5.28;;;25.80;79.00;;;;;;5008082;28;22644;-74
2022/05/25 12:39:47;;;;;;;7.50;4.93;;;26.00;81.80;;;;;;4996773;28;20052;-73
2022/05/25 12:42:24;;;;;;;7.60;5.10;;;26.10;75.40;;;;;;4998142;28;20049;-74
2022/05/25 12:50:48;;;;;;;6.75;4.72;;;25.90;74.90;;;;;;5001717;28;20079;-72
2022/05/25 12:53:26;;;;;;;9.73;4.75;;;25.70;74.30;;;;;;4999219;28;20049;-73
2022/05/25 12:55:58;;;;;;;6.22;4.72;;;25.50;74.50;;;;;;5002081;28;20080;-73
2022/05/25 12:58:47;;;;;;;6.50;4.10;;;25.60;75.50;;;;;;5016118;28;20057;-73
2022/05/25 13:01:14;;;;;;;6.25;3.83;;;25.90;76.20;;;;;;4989973;28;20190;-74
2022/05/25 13:03:45;;;;;;;5.50;3.55;;;26.00;77.00;;;;;;5005682;28;21119;-73
2022/05/25 13:06:14;;;;;;;5.13;3.95;;;26.00;73.10;;;;;;5009271;28;20098;-73
2022/05/25 13:08:48;;;;;;;5.93;3.85;;;26.00;75.90;;;;;;4999274;28;22428;-72
2022/05/25 13:11:43;;;;;;;6.45;4.40;;;25.80;74.10;;;;;;4998525;28;20049;-73
2022/05/25 13:14:16;;;;;;;7.45;4.38;;;25.40;74.60;;;;;;5004888;28;20095;-73
2022/05/25 13:16:46;;;;;;;5.65;4.50;;;25.50;74.60;;;;;;5005967;28;20049;-74
2022/05/25 13:19:16;;;;;;;5.72;4.07;;;25.40;73.80;;;;;;5000216;28;20052;-73
2022/05/25 13:22:09;;;;;;;7.13;4.00;;;25.40;75.30;;;;;;5018579;28;20055;-73
2022/05/25 13:24:51;;;;;;;;;;;25.40;74.30;;;;;;4996445;28;20238;-73
2022/05/25 13:27:23;;;;;;;7.07;4.00;;;25.50;74.10;;;;;;4973680;28;19933;-73
2022/05/25 13:30:07;;;;;;;6.50;4.15;;;25.70;76.30;;;;;;4983489;28;22292;-73
2022/05/25 13:32:57;;;;;;;7.35;4.35;;;25.90;75.90;;;;;;4971804;28;20046;-74
2022/05/25 13:35:27;;;;;;;8.20;4.43;;;25.90;76.80;;;;;;4979109;28;20042;-74
2022/05/25 13:38:03;;;;;;;4.75;3.97;;;25.60;76.40;;;;;;4999129;28;20127;-73
2022/05/25 13:40:46;;;;;;;6.78;4.53;;;25.40;77.60;;;;;;4996699;28;20045;-74
2022/05/25 13:43:21;;;;;;;7.82;4.40;;;25.60;78.70;;;;;;4971907;28;20046;-73
2022/05/25 13:45:51;;;;;;;7.05;4.57;;;25.80;76.80;;;;;;4972750;28;20064;-73
2022/05/25 13:48:24;;;;;;;7.13;4.43;;;25.90;77.50;;;;;;4981437;28;20057;-73
2022/05/25 13:50:57;;;;;;;7.43;4.63;;;25.80;77.30;;;;;;4980668;28;20056;-73
2022/05/25 13:53:36;;;;;;;5.22;4.32;;;25.80;77.40;;;;;;4997538;28;20049;-73
2022/05/25 13:56:19;;;;;;;7.00;4.80;;;25.80;77.00;;;;;;4985120;28;21088;-73
2022/05/25 13:58:49;;;;;;;7.13;4.68;;;25.50;76.40;;;;;;4976673;28;20045;-73
2022/05/25 14:01:22;;;;;;;5.60;4.75;;;25.40;79.20;;;;;;4983297;28;22374;-74
2022/05/25 14:04:04;;;;;;;10.63;4.43;;;25.30;78.10;;;;;;4974068;28;20128;-74